sensor_id;sensor_type;location;lat;lon;timestamp;pressure;altitude;pressure_sealevel;temperature;humidity
9525;BME280;15940;48.734;9.112;2023-05-01T00:00:35;96492.31;;;9.15;79.81
9525;BME280;15940;48.734;9.112;2023-05-01T00:03:02;96485.44;;;9.14;79.76
9525;BME280;15940;48.734;9.112;2023-05-01T00:05:29;96481.44;;;9.09;79.12
9525;BME280;15940;48.734;9.112;2023-05-01T00:07:57;96481.44;;;9.09;79.75
9525;BME280;15940;48.734;9.112;2023-05-01T00:10:24;96481.03;;;9.16;79.60
9525;BME280;15940;48.734;9.112;2023-05-01T00:12:51;96470.44;;;9.13;80.00
9525;BME280;15940;48.734;9.112;2023-05-01T00:15:18;96474.84;;;9.10;80.36
9525;BME280;15940;48.734;9.112;2023-05-01T00:17:45;96467.44;;;9.05;79.41
9525;BME280;15940;48.734;9.112;2023-05-01T00:20:12;96460.03;;;9.00;79.19
9525;BME280;15940;48.734;9.112;2023-05-01T00:22:39;96465.22;;;9.04;81.01
9525;BME280;15940;48.734;9.112;2023-05-01T00:25:08;96459.47;;;8.96;78.80
9525;BME280;15940;48.734;9.112;2023-05-01T00:27:35;96465.63;;;8.97;80.64
9525;BME280;15940;48.734;9.112;2023-05-01T00:30:02;96456.88;;;9.07;80.01
9525;BME280;15940;48.734;9.112;2023-05-01T00:32:29;96452.19;;;9.02;79.81
9525;BME280;15940;48.734;9.112;2023-05-01T00:34:56;96451.16;;;9.00;81.65
9525;BME280;15940;48.734;9.112;2023-05-01T00:37:23;96448.78;;;9.07;81.11
9525;BME280;15940;48.734;9.112;2023-05-01T00:39:50;96442.13;;;9.03;81.42
9525;BME280;15940;48.734;9.112;2023-05-01T00:42:19;96447.72;;;8.99;79.89
9525;BME280;15940;48.734;9.112;2023-05-01T00:44:46;96442.03;;;8.92;80.23
9525;BME280;15940;48.734;9.112;2023-05-01T00:47:12;96441.91;;;8.80;80.05
9525;BME280;15940;48.734;9.112;2023-05-01T00:49:41;96425.97;;;8.82;80.85
9525;BME280;15940;48.734;9.112;2023-05-01T00:52:09;96434.75;;;8.77;80.87
9525;BME280;15940;48.734;9.112;2023-05-01T00:54:36;96430.63;;;8.82;81.67
9525;BME280;15940;48.734;9.112;2023-05-01T00:57:05;96424.03;;;8.83;80.83
9525;BME280;15940;48.734;9.112;2023-05-01T00:59:34;96434.09;;;8.82;81.37
9525;BME280;15940;48.734;9.112;2023-05-01T01:02:01;96425.50;;;8.84;81.58
9525;BME280;15940;48.734;9.112;2023-05-01T01:04:28;96422.53;;;8.82;81.92
9525;BME280;15940;48.734;9.112;2023-05-01T01:07:06;96421.56;;;8.85;80.56
9525;BME280;15940;48.734;9.112;2023-05-01T01:09:44;96414.94;;;8.86;80.85
9525;BME280;15940;48.734;9.112;2023-05-01T01:12:22;96418.13;;;8.84;81.05
9525;BME280;15940;48.734;9.112;2023-05-01T01:14:58;96415.22;;;8.88;81.07
9525;BME280;15940;48.734;9.112;2023-05-01T01:17:31;96410.81;;;8.91;80.81
9525;BME280;15940;48.734;9.112;2023-05-01T01:20:30;96409.16;;;8.99;80.64
9525;BME280;15940;48.734;9.112;2023-05-01T01:23:31;96401.72;;;8.88;80.12
9525;BME280;15940;48.734;9.112;2023-05-01T01:26:47;96400.97;;;8.87;81.50
9525;BME280;15940;48.734;9.112;2023-05-01T01:29:39;96402.03;;;8.96;81.17
9525;BME280;15940;48.734;9.112;2023-05-01T01:32:43;96405.69;;;8.93;80.91
9525;BME280;15940;48.734;9.112;2023-05-01T01:35:24;96402.69;;;8.91;80.23
9525;BME280;15940;48.734;9.112;2023-05-01T01:38:00;96395.25;;;8.80;80.59
9525;BME280;15940;48.734;9.112;2023-05-01T01:40:36;96397.00;;;8.83;81.38
9525;BME280;15940;48.734;9.112;2023-05-01T01:43:06;96391.06;;;8.79;81.07
9525;BME280;15940;48.734;9.112;2023-05-01T01:45:39;96399.41;;;8.75;80.75
9525;BME280;15940;48.734;9.112;2023-05-01T01:48:10;96397.94;;;8.80;81.85
9525;BME280;15940;48.734;9.112;2023-05-01T01:50:39;96401.38;;;8.80;81.64
9525;BME280;15940;48.734;9.112;2023-05-01T01:53:08;96396.69;;;8.75;81.26
9525;BME280;15940;48.734;9.112;2023-05-01T01:55:37;96391.22;;;8.70;80.31
9525;BME280;15940;48.734;9.112;2023-05-01T01:58:06;96384.09;;;8.67;80.83
9525;BME280;15940;48.734;9.112;2023-05-01T02:00:35;96385.78;;;8.64;80.90
9525;BME280;15940;48.734;9.112;2023-05-01T02:03:03;96378.75;;;8.72;81.44
9525;BME280;15940;48.734;9.112;2023-05-01T02:05:31;96383.44;;;8.77;81.74
9525;BME280;15940;48.734;9.112;2023-05-01T02:08:00;96379.28;;;8.76;81.29
9525;BME280;15940;48.734;9.112;2023-05-01T02:10:28;96372.22;;;8.84;81.68
9525;BME280;15940;48.734;9.112;2023-05-01T02:12:57;96369.03;;;8.86;81.92
9525;BME280;15940;48.734;9.112;2023-05-01T02:15:25;96369.25;;;8.82;81.25
9525;BME280;15940;48.734;9.112;2023-05-01T02:17:54;96360.63;;;8.78;81.07
9525;BME280;15940;48.734;9.112;2023-05-01T02:20:21;96366.25;;;8.75;80.58
9525;BME280;15940;48.734;9.112;2023-05-01T02:22:50;96365.34;;;8.83;81.03
9525;BME280;15940;48.734;9.112;2023-05-01T02:25:19;96358.91;;;8.81;80.73
9525;BME280;15940;48.734;9.112;2023-05-01T02:27:55;96364.59;;;8.83;80.83
9525;BME280;15940;48.734;9.112;2023-05-01T02:30:22;96363.31;;;8.78;80.59
9525;BME280;15940;48.734;9.112;2023-05-01T02:32:49;96364.59;;;8.83;80.77
9525;BME280;15940;48.734;9.112;2023-05-01T02:35:17;96359.41;;;8.79;81.57
9525;BME280;15940;48.734;9.112;2023-05-01T02:37:44;96356.03;;;8.84;80.56
9525;BME280;15940;48.734;9.112;2023-05-01T02:40:12;96351.34;;;8.85;80.91
9525;BME280;15940;48.734;9.112;2023-05-01T02:42:42;96352.09;;;8.85;80.71
9525;BME280;15940;48.734;9.112;2023-05-01T02:45:16;96350.63;;;8.84;80.22
9525;BME280;15940;48.734;9.112;2023-05-01T02:47:47;96350.13;;;8.86;80.31
9525;BME280;15940;48.734;9.112;2023-05-01T02:50:16;96343.75;;;8.89;80.95
9525;BME280;15940;48.734;9.112;2023-05-01T02:52:44;96341.84;;;8.95;81.02
9525;BME280;15940;48.734;9.112;2023-05-01T02:55:12;96339.94;;;9.01;80.87
9525;BME280;15940;48.734;9.112;2023-05-01T02:57:40;96338.22;;;9.04;80.73
9525;BME280;15940;48.734;9.112;2023-05-01T03:00:08;96339.47;;;9.08;80.69
9525;BME280;15940;48.734;9.112;2023-05-01T03:02:38;96339.97;;;9.07;80.16
9525;BME280;15940;48.734;9.112;2023-05-01T03:05:06;96341.94;;;9.06;80.05
9525;BME280;15940;48.734;9.112;2023-05-01T03:07:33;96342.91;;;9.03;79.92
9525;BME280;15940;48.734;9.112;2023-05-01T03:10:00;96342.19;;;9.08;79.49
9525;BME280;15940;48.734;9.112;2023-05-01T03:12:28;96347.06;;;9.04;79.50
9525;BME280;15940;48.734;9.112;2023-05-01T03:14:57;96344.13;;;9.02;79.57
9525;BME280;15940;48.734;9.112;2023-05-01T03:17:24;96337.69;;;8.94;80.75
9525;BME280;15940;48.734;9.112;2023-05-01T03:19:51;96337.88;;;8.91;80.41
9525;BME280;15940;48.734;9.112;2023-05-01T03:22:18;96338.16;;;8.93;80.05
9525;BME280;15940;48.734;9.112;2023-05-01T03:24:45;96335.88;;;8.85;80.07
9525;BME280;15940;48.734;9.112;2023-05-01T03:27:12;96336.41;;;8.90;80.34
9525;BME280;15940;48.734;9.112;2023-05-01T03:29:39;96325.81;;;8.86;79.94
9525;BME280;15940;48.734;9.112;2023-05-01T03:32:08;96323.34;;;8.82;80.16
9525;BME280;15940;48.734;9.112;2023-05-01T03:34:34;96328.03;;;8.82;80.12
9525;BME280;15940;48.734;9.112;2023-05-01T03:37:01;96324.78;;;8.78;80.06
9525;BME280;15940;48.734;9.112;2023-05-01T03:39:28;96325.25;;;8.76;80.13
9525;BME280;15940;48.734;9.112;2023-05-01T03:41:55;96324.53;;;8.76;80.76
9525;BME280;15940;48.734;9.112;2023-05-01T03:44:23;96316.69;;;8.78;81.01
9525;BME280;15940;48.734;9.112;2023-05-01T03:46:50;96314.69;;;8.73;80.35
9525;BME280;15940;48.734;9.112;2023-05-01T03:49:19;96319.34;;;8.72;80.62
9525;BME280;15940;48.734;9.112;2023-05-01T03:51:45;96310.03;;;8.73;81.02
9525;BME280;15940;48.734;9.112;2023-05-01T03:54:12;96308.56;;;8.72;80.93
9525;BME280;15940;48.734;9.112;2023-05-01T03:56:39;96308.56;;;8.72;81.15
9525;BME280;15940;48.734;9.112;2023-05-01T03:59:06;96309.00;;;8.71;81.12
9525;BME280;15940;48.734;9.112;2023-05-01T04:01:33;96308.81;;;8.74;81.66
9525;BME280;15940;48.734;9.112;2023-05-01T04:04:00;96309.53;;;8.75;81.29
9525;BME280;15940;48.734;9.112;2023-05-01T04:06:29;96307.59;;;8.75;81.44
9525;BME280;15940;48.734;9.112;2023-05-01T04:08:56;96307.59;;;8.75;81.17
9525;BME280;15940;48.734;9.112;2023-05-01T04:11:23;96299.22;;;8.73;81.36
9525;BME280;15940;48.734;9.112;2023-05-01T04:13:50;96308.81;;;8.74;81.25
9525;BME280;15940;48.734;9.112;2023-05-01T04:16:16;96305.13;;;8.77;81.54
9525;BME280;15940;48.734;9.112;2023-05-01T04:18:43;96311.31;;;8.83;81.99
9525;BME280;15940;48.734;9.112;2023-05-01T04:21:10;96310.84;;;8.85;81.69
9525;BME280;15940;48.734;9.112;2023-05-01T04:23:40;96308.16;;;8.85;81.68
9525;BME280;15940;48.734;9.112;2023-05-01T04:26:07;96309.38;;;8.84;81.59
9525;BME280;15940;48.734;9.112;2023-05-01T04:28:34;96307.97;;;8.94;81.74
9525;BME280;15940;48.734;9.112;2023-05-01T04:31:01;96310.22;;;9.01;81.94
9525;BME280;15940;48.734;9.112;2023-05-01T04:33:28;96312.63;;;8.94;81.29
9525;BME280;15940;48.734;9.112;2023-05-01T04:35:55;96313.13;;;8.98;81.38
9525;BME280;15940;48.734;9.112;2023-05-01T04:38:22;96309.94;;;8.99;81.58
9525;BME280;15940;48.734;9.112;2023-05-01T04:40:50;96317.59;;;9.01;80.87
9525;BME280;15940;48.734;9.112;2023-05-01T04:43:18;96316.38;;;9.02;81.49
9525;BME280;15940;48.734;9.112;2023-05-01T04:45:45;96321.03;;;9.01;81.14
9525;BME280;15940;48.734;9.112;2023-05-01T04:48:11;96316.38;;;9.02;81.18
9525;BME280;15940;48.734;9.112;2023-05-01T04:50:38;96315.34;;;8.99;81.00
9525;BME280;15940;48.734;9.112;2023-05-01T04:53:05;96314.44;;;9.08;80.87
9525;BME280;15940;48.734;9.112;2023-05-01T04:55:34;96314.19;;;9.06;81.17
9525;BME280;15940;48.734;9.112;2023-05-01T04:58:02;96310.25;;;9.07;81.06
9525;BME280;15940;48.734;9.112;2023-05-01T05:00:29;96308.53;;;9.09;81.59
9525;BME280;15940;48.734;9.112;2023-05-01T05:02:56;96313.72;;;9.13;81.28
9525;BME280;15940;48.734;9.112;2023-05-01T05:05:23;96310.53;;;9.14;81.33
9525;BME280;15940;48.734;9.112;2023-05-01T05:07:50;96309.56;;;9.12;81.37
9525;BME280;15940;48.734;9.112;2023-05-01T05:10:17;96319.38;;;9.15;81.81
9525;BME280;15940;48.734;9.112;2023-05-01T05:12:44;96315.47;;;9.16;81.67
9525;BME280;15940;48.734;9.112;2023-05-01T05:15:12;96314.72;;;9.15;81.76
9525;BME280;15940;48.734;9.112;2023-05-01T05:17:39;96315.53;;;9.27;82.26
9525;BME280;15940;48.734;9.112;2023-05-01T05:20:07;96316.78;;;9.32;82.18
9525;BME280;15940;48.734;9.112;2023-05-01T05:22:35;96316.81;;;9.37;82.18
9525;BME280;15940;48.734;9.112;2023-05-01T05:25:03;96318.28;;;9.33;81.98
9525;BME280;15940;48.734;9.112;2023-05-01T05:27:31;96317.28;;;9.30;81.55
9525;BME280;15940;48.734;9.112;2023-05-01T05:30:03;96327.25;;;9.19;81.18
9525;BME280;15940;48.734;9.112;2023-05-01T05:32:31;96323.81;;;9.12;81.59
9525;BME280;15940;48.734;9.112;2023-05-01T05:34:59;96322.34;;;9.17;81.81
9525;BME280;15940;48.734;9.112;2023-05-01T05:37:26;96321.84;;;9.13;81.62
9525;BME280;15940;48.734;9.112;2023-05-01T05:39:53;96325.28;;;9.13;81.88
9525;BME280;15940;48.734;9.112;2023-05-01T05:42:20;96327.25;;;9.13;82.08
9525;BME280;15940;48.734;9.112;2023-05-01T05:44:47;96325.78;;;9.18;82.67
9525;BME280;15940;48.734;9.112;2023-05-01T05:47:14;96326.81;;;9.20;82.67
9525;BME280;15940;48.734;9.112;2023-05-01T05:49:42;96324.09;;;9.20;82.44
9525;BME280;15940;48.734;9.112;2023-05-01T05:52:09;96320.19;;;9.21;82.60
9525;BME280;15940;48.734;9.112;2023-05-01T05:54:36;96318.69;;;9.20;82.75
9525;BME280;15940;48.734;9.112;2023-05-01T05:57:03;96318.47;;;9.24;83.24
9525;BME280;15940;48.734;9.112;2023-05-01T05:59:30;96321.22;;;9.29;83.41
9525;BME280;15940;48.734;9.112;2023-05-01T06:01:57;96323.41;;;9.31;82.70
9525;BME280;15940;48.734;9.112;2023-05-01T06:04:23;96327.06;;;9.28;81.73
9525;BME280;15940;48.734;9.112;2023-05-01T06:06:52;96324.38;;;9.28;81.46
9525;BME280;15940;48.734;9.112;2023-05-01T06:09:19;96321.72;;;9.33;80.84
9525;BME280;15940;48.734;9.112;2023-05-01T06:11:46;96324.22;;;9.42;80.53
9525;BME280;15940;48.734;9.112;2023-05-01T06:14:13;96323.28;;;9.57;80.75
9525;BME280;15940;48.734;9.112;2023-05-01T06:16:41;96320.66;;;9.68;80.69
9525;BME280;15940;48.734;9.112;2023-05-01T06:19:08;96314.31;;;9.82;80.54
9525;BME280;15940;48.734;9.112;2023-05-01T06:21:36;96314.34;;;9.99;80.13
9525;BME280;15940;48.734;9.112;2023-05-01T06:24:05;96309.50;;;10.14;79.75
9525;BME280;15940;48.734;9.112;2023-05-01T06:26:33;96314.91;;;10.20;79.36
9525;BME280;15940;48.734;9.112;2023-05-01T06:29:00;96316.19;;;10.24;77.75
9525;BME280;15940;48.734;9.112;2023-05-01T06:31:26;96322.06;;;10.23;77.06
9525;BME280;15940;48.734;9.112;2023-05-01T06:33:53;96323.00;;;10.20;76.54
9525;BME280;15940;48.734;9.112;2023-05-01T06:36:20;96325.03;;;10.25;76.56
9525;BME280;15940;48.734;9.112;2023-05-01T06:38:47;96329.72;;;10.24;76.17
9525;BME280;15940;48.734;9.112;2023-05-01T06:41:16;96329.72;;;10.24;76.35
9525;BME280;15940;48.734;9.112;2023-05-01T06:43:43;96323.06;;;10.25;76.44
9525;BME280;15940;48.734;9.112;2023-05-01T06:46:10;96326.00;;;10.27;76.22
9525;BME280;15940;48.734;9.112;2023-05-01T06:48:37;96332.91;;;10.40;77.20
9525;BME280;15940;48.734;9.112;2023-05-01T06:51:04;96331.44;;;10.39;75.08
9525;BME280;15940;48.734;9.112;2023-05-01T06:53:31;96338.34;;;10.40;74.57
9525;BME280;15940;48.734;9.112;2023-05-01T06:55:57;96347.47;;;10.48;75.64
9525;BME280;15940;48.734;9.112;2023-05-01T06:58:26;96344.75;;;10.59;75.36
9525;BME280;15940;48.734;9.112;2023-05-01T07:00:53;96338.59;;;10.70;75.27
9525;BME280;15940;48.734;9.112;2023-05-01T07:03:20;96342.81;;;10.82;75.18
9525;BME280;15940;48.734;9.112;2023-05-01T07:05:47;96348.47;;;10.84;74.27
9525;BME280;15940;48.734;9.112;2023-05-01T07:08:14;96345.75;;;10.95;74.71
9525;BME280;15940;48.734;9.112;2023-05-01T07:10:41;96348.22;;;10.93;73.89
9525;BME280;15940;48.734;9.112;2023-05-01T07:13:08;96348.47;;;11.01;73.67
9525;BME280;15940;48.734;9.112;2023-05-01T07:15:36;96346.25;;;11.05;73.30
9525;BME280;15940;48.734;9.112;2023-05-01T07:18:03;96346.72;;;11.14;74.68
9525;BME280;15940;48.734;9.112;2023-05-01T07:20:31;96350.41;;;11.23;73.27
9525;BME280;15940;48.734;9.112;2023-05-01T07:22:59;96341.56;;;11.11;73.52
9525;BME280;15940;48.734;9.112;2023-05-01T07:25:26;96342.81;;;11.10;73.87
9525;BME280;15940;48.734;9.112;2023-05-01T07:27:53;96344.53;;;11.19;74.03
9525;BME280;15940;48.734;9.112;2023-05-01T07:30:20;96338.34;;;11.24;73.87
9525;BME280;15940;48.734;9.112;2023-05-01T07:32:48;96330.97;;;11.19;71.76
9525;BME280;15940;48.734;9.112;2023-05-01T07:35:15;96329.50;;;11.12;71.68
9525;BME280;15940;48.734;9.112;2023-05-01T07:37:42;96340.81;;;11.22;72.29
9525;BME280;15940;48.734;9.112;2023-05-01T07:40:10;96332.19;;;11.23;72.44
9525;BME280;15940;48.734;9.112;2023-05-01T07:42:37;96333.13;;;11.37;72.25
9525;BME280;15940;48.734;9.112;2023-05-01T07:45:06;96337.03;;;11.58;72.29
9525;BME280;15940;48.734;9.112;2023-05-01T07:47:33;96338.47;;;11.70;72.21
9525;BME280;15940;48.734;9.112;2023-05-01T07:50:03;96336.50;;;11.65;70.10
9525;BME280;15940;48.734;9.112;2023-05-01T07:52:30;96334.13;;;11.39;70.80
9525;BME280;15940;48.734;9.112;2023-05-01T07:54:57;96329.41;;;11.45;72.59
9525;BME280;15940;48.734;9.112;2023-05-01T07:57:23;96326.66;;;11.62;73.02
9525;BME280;15940;48.734;9.112;2023-05-01T07:59:53;96325.91;;;11.67;72.02
9525;BME280;15940;48.734;9.112;2023-05-01T08:02:20;96325.13;;;11.78;72.68
9525;BME280;15940;48.734;9.112;2023-05-01T08:04:47;96328.31;;;11.82;72.04
9525;BME280;15940;48.734;9.112;2023-05-01T08:07:16;96326.84;;;11.87;72.46
9525;BME280;15940;48.734;9.112;2023-05-01T08:09:43;96325.63;;;11.82;70.29
9525;BME280;15940;48.734;9.112;2023-05-01T08:12:11;96326.59;;;11.85;71.54
9525;BME280;15940;48.734;9.112;2023-05-01T08:14:38;96345.00;;;12.03;71.53
9525;BME280;15940;48.734;9.112;2023-05-01T08:17:05;96332.38;;;12.11;70.96
9525;BME280;15940;48.734;9.112;2023-05-01T08:19:33;96334.75;;;12.32;71.33
9525;BME280;15940;48.734;9.112;2023-05-01T08:22:00;96331.91;;;12.54;70.98
9525;BME280;15940;48.734;9.112;2023-05-01T08:24:28;96326.78;;;12.75;69.15
9525;BME280;15940;48.734;9.112;2023-05-01T08:26:55;96334.09;;;12.91;69.48
9525;BME280;15940;48.734;9.112;2023-05-01T08:29:22;96328.50;;;13.08;67.47
9525;BME280;15940;48.734;9.112;2023-05-01T08:31:49;96329.41;;;13.46;69.09
9525;BME280;15940;48.734;9.112;2023-05-01T08:34:16;96325.88;;;13.51;66.95
9525;BME280;15940;48.734;9.112;2023-05-01T08:36:43;96319.72;;;13.69;65.97
9525;BME280;15940;48.734;9.112;2023-05-01T08:39:10;96319.53;;;13.86;66.25
9525;BME280;15940;48.734;9.112;2023-05-01T08:41:39;96318.28;;;14.06;65.62
9525;BME280;15940;48.734;9.112;2023-05-01T08:44:07;96319.25;;;14.27;65.91
9525;BME280;15940;48.734;9.112;2023-05-01T08:46:45;96312.38;;;14.21;62.25
9525;BME280;15940;48.734;9.112;2023-05-01T08:49:15;96316.53;;;14.09;63.24
9525;BME280;15940;48.734;9.112;2023-05-01T08:51:45;96315.41;;;14.36;63.40
9525;BME280;15940;48.734;9.112;2023-05-01T08:54:14;96317.91;;;14.53;63.62
9525;BME280;15940;48.734;9.112;2023-05-01T08:56:43;96315.81;;;14.59;62.64
9525;BME280;15940;48.734;9.112;2023-05-01T08:59:13;96312.91;;;14.89;62.08
9525;BME280;15940;48.734;9.112;2023-05-01T09:01:41;96312.59;;;15.06;60.69
9525;BME280;15940;48.734;9.112;2023-05-01T09:04:08;96316.50;;;15.10;61.29
9525;BME280;15940;48.734;9.112;2023-05-01T09:06:36;96318.38;;;15.15;59.95
9525;BME280;15940;48.734;9.112;2023-05-01T09:09:04;96316.06;;;15.06;59.23
9525;BME280;15940;48.734;9.112;2023-05-01T09:11:31;96318.69;;;14.99;60.27
9525;BME280;15940;48.734;9.112;2023-05-01T09:14:01;96309.25;;;15.00;59.65
9525;BME280;15940;48.734;9.112;2023-05-01T09:16:30;96315.13;;;15.04;60.36
9525;BME280;15940;48.734;9.112;2023-05-01T09:18:57;96320.09;;;15.19;61.28
9525;BME280;15940;48.734;9.112;2023-05-01T09:21:26;96319.34;;;15.18;58.86
9525;BME280;15940;48.734;9.112;2023-05-01T09:23:53;96316.19;;;15.14;58.26
9525;BME280;15940;48.734;9.112;2023-05-01T09:26:21;96319.22;;;14.97;56.16
9525;BME280;15940;48.734;9.112;2023-05-01T09:28:48;96319.09;;;15.03;57.77
9525;BME280;15940;48.734;9.112;2023-05-01T09:31:25;96315.38;;;15.32;58.16
9525;BME280;15940;48.734;9.112;2023-05-01T09:33:55;96326.09;;;15.70;57.78
9525;BME280;15940;48.734;9.112;2023-05-01T09:36:24;96320.81;;;16.12;55.45
9525;BME280;15940;48.734;9.112;2023-05-01T09:38:51;96313.31;;;16.46;54.80
9525;BME280;15940;48.734;9.112;2023-05-01T09:41:19;96323.81;;;16.55;55.78
9525;BME280;15940;48.734;9.112;2023-05-01T09:43:51;96322.16;;;16.52;55.96
9525;BME280;15940;48.734;9.112;2023-05-01T09:46:19;96320.06;;;16.45;54.11
9525;BME280;15940;48.734;9.112;2023-05-01T09:48:56;96316.75;;;16.39;53.78
9525;BME280;15940;48.734;9.112;2023-05-01T09:51:26;96313.44;;;16.07;52.77
9525;BME280;15940;48.734;9.112;2023-05-01T09:53:55;96311.66;;;16.09;55.56
9525;BME280;15940;48.734;9.112;2023-05-01T09:56:23;96314.63;;;16.11;55.54
9525;BME280;15940;48.734;9.112;2023-05-01T09:58:52;96311.53;;;16.15;54.64
9525;BME280;15940;48.734;9.112;2023-05-01T10:01:37;96312.72;;;16.06;55.57
9525;BME280;15940;48.734;9.112;2023-05-01T10:04:06;96317.53;;;16.13;55.82
9525;BME280;15940;48.734;9.112;2023-05-01T10:06:34;96312.91;;;16.21;56.05
9525;BME280;15940;48.734;9.112;2023-05-01T10:09:03;96313.19;;;16.31;55.68
9525;BME280;15940;48.734;9.112;2023-05-01T10:11:46;96307.00;;;16.51;55.14
9525;BME280;15940;48.734;9.112;2023-05-01T10:14:14;96308.22;;;16.64;55.05
9525;BME280;15940;48.734;9.112;2023-05-01T10:16:40;96315.41;;;16.53;55.57
9525;BME280;15940;48.734;9.112;2023-05-01T10:19:09;96315.06;;;16.57;54.91
9525;BME280;15940;48.734;9.112;2023-05-01T10:21:37;96315.41;;;16.53;55.21
9525;BME280;15940;48.734;9.112;2023-05-01T10:24:04;96314.16;;;16.54;53.54
9525;BME280;15940;48.734;9.112;2023-05-01T10:26:34;96310.72;;;16.75;55.21
9525;BME280;15940;48.734;9.112;2023-05-01T10:29:02;96314.66;;;16.87;53.37
9525;BME280;15940;48.734;9.112;2023-05-01T10:31:29;96315.91;;;16.86;52.39
9525;BME280;15940;48.734;9.112;2023-05-01T10:33:58;96317.31;;;17.00;51.76
9525;BME280;15940;48.734;9.112;2023-05-01T10:36:35;96310.88;;;17.19;54.30
9525;BME280;15940;48.734;9.112;2023-05-01T10:39:04;96310.72;;;17.53;53.53
9525;BME280;15940;48.734;9.112;2023-05-01T10:42:00;96310.31;;;17.69;53.06
9525;BME280;15940;48.734;9.112;2023-05-01T10:44:28;96314.22;;;17.89;58.49
9525;BME280;15940;48.734;9.112;2023-05-01T10:49:14;96305.78;;;17.80;55.59
9525;BME280;15940;48.734;9.112;2023-05-01T10:51:57;96311.09;;;17.78;56.15
9525;BME280;15940;48.734;9.112;2023-05-01T10:54:25;96304.81;;;17.41;55.53
9525;BME280;15940;48.734;9.112;2023-05-01T10:56:54;96307.41;;;17.18;54.64
9525;BME280;15940;48.734;9.112;2023-05-01T10:59:22;96307.38;;;16.90;57.15
9525;BME280;15940;48.734;9.112;2023-05-01T11:01:49;96307.84;;;16.80;56.54
9525;BME280;15940;48.734;9.112;2023-05-01T11:04:49;96308.34;;;16.58;59.80
9525;BME280;15940;48.734;9.112;2023-05-01T11:07:20;96307.38;;;16.35;57.50
9525;BME280;15940;48.734;9.112;2023-05-01T11:09:49;96306.41;;;16.11;58.53
9525;BME280;15940;48.734;9.112;2023-05-01T11:12:51;96303.69;;;15.98;60.61
9525;BME280;15940;48.734;9.112;2023-05-01T11:15:29;96304.66;;;15.87;60.96
9525;BME280;15940;48.734;9.112;2023-05-01T11:17:57;96304.38;;;15.78;60.45
9525;BME280;15940;48.734;9.112;2023-05-01T11:20:50;96302.16;;;15.63;61.10
9525;BME280;15940;48.734;9.112;2023-05-01T11:23:18;96301.81;;;15.53;61.69
9525;BME280;15940;48.734;9.112;2023-05-01T11:25:47;96299.19;;;15.34;61.83
9525;BME280;15940;48.734;9.112;2023-05-01T11:28:19;96302.03;;;15.29;63.10
9525;BME280;15940;48.734;9.112;2023-05-01T11:30:50;96295.31;;;15.17;62.81
9525;BME280;15940;48.734;9.112;2023-05-01T11:33:23;96296.03;;;15.04;63.11
9525;BME280;15940;48.734;9.112;2023-05-01T11:36:00;96299.06;;;15.00;62.83
9525;BME280;15940;48.734;9.112;2023-05-01T11:38:28;96292.56;;;14.90;63.30
9525;BME280;15940;48.734;9.112;2023-05-01T11:40:59;96297.97;;;14.77;64.02
9525;BME280;15940;48.734;9.112;2023-05-01T11:43:26;96303.66;;;14.79;63.92
9525;BME280;15940;48.734;9.112;2023-05-01T11:45:54;96302.16;;;14.78;65.12
9525;BME280;15940;48.734;9.112;2023-05-01T11:50:44;96301.13;;;14.81;64.63
9525;BME280;15940;48.734;9.112;2023-05-01T11:53:13;96298.41;;;14.81;63.85
9525;BME280;15940;48.734;9.112;2023-05-01T11:55:40;96304.81;;;14.83;63.63
9525;BME280;15940;48.734;9.112;2023-05-01T11:58:07;96299.66;;;14.80;63.70
9525;BME280;15940;48.734;9.112;2023-05-01T12:00:36;96298.41;;;14.81;63.49
9525;BME280;15940;48.734;9.112;2023-05-01T12:03:05;96299.34;;;14.83;64.45
9525;BME280;15940;48.734;9.112;2023-05-01T12:05:35;96296.09;;;14.85;64.79
9525;BME280;15940;48.734;9.112;2023-05-01T12:08:08;96290.34;;;14.89;64.00
9525;BME280;15940;48.734;9.112;2023-05-01T12:10:37;96293.19;;;14.96;65.32
9525;BME280;15940;48.734;9.112;2023-05-01T12:13:07;96290.78;;;15.06;65.85
9525;BME280;15940;48.734;9.112;2023-05-01T12:15:36;96298.97;;;15.06;64.96
9525;BME280;15940;48.734;9.112;2023-05-01T12:18:05;96291.00;;;15.21;64.38
9525;BME280;15940;48.734;9.112;2023-05-01T12:20:40;96283.78;;;15.24;63.23
9525;BME280;15940;48.734;9.112;2023-05-01T12:23:10;96297.22;;;15.22;62.47
9525;BME280;15940;48.734;9.112;2023-05-01T12:25:39;96288.69;;;15.25;63.15
9525;BME280;15940;48.734;9.112;2023-05-01T12:28:09;96284.72;;;15.39;62.13
9525;BME280;15940;48.734;9.112;2023-05-01T12:30:37;96290.16;;;15.53;61.31
9525;BME280;15940;48.734;9.112;2023-05-01T12:33:09;96288.72;;;15.78;62.58
9525;BME280;15940;48.734;9.112;2023-05-01T12:35:37;96289.72;;;16.02;63.04
9525;BME280;15940;48.734;9.112;2023-05-01T12:38:15;96286.91;;;15.94;60.88
9525;BME280;15940;48.734;9.112;2023-05-01T12:40:51;96281.56;;;15.88;61.02
9525;BME280;15940;48.734;9.112;2023-05-01T12:43:19;96286.03;;;15.99;61.22
9525;BME280;15940;48.734;9.112;2023-05-01T12:45:51;96288.56;;;15.97;61.94
9525;BME280;15940;48.734;9.112;2023-05-01T12:48:19;96289.25;;;15.77;61.65
9525;BME280;15940;48.734;9.112;2023-05-01T12:50:46;96286.09;;;15.33;62.46
9525;BME280;15940;48.734;9.112;2023-05-01T12:53:20;96289.88;;;15.30;63.42
9525;BME280;15940;48.734;9.112;2023-05-01T12:55:50;96290.41;;;15.28;63.97
9525;BME280;15940;48.734;9.112;2023-05-01T12:58:18;96288.50;;;15.10;65.08
9525;BME280;15940;48.734;9.112;2023-05-01T13:00:47;96286.97;;;14.82;63.82
9525;BME280;15940;48.734;9.112;2023-05-01T13:03:22;96287.25;;;14.66;65.90
9525;BME280;15940;48.734;9.112;2023-05-01T13:05:55;96290.47;;;14.51;66.50
9525;BME280;15940;48.734;9.112;2023-05-01T13:08:29;96289.09;;;14.39;66.59
9525;BME280;15940;48.734;9.112;2023-05-01T13:10:57;96290.94;;;14.30;67.31
9525;BME280;15940;48.734;9.112;2023-05-01T13:13:28;96304.47;;;14.23;69.70
9525;BME280;15940;48.734;9.112;2023-05-01T13:16:07;96296.34;;;13.98;74.93
9525;BME280;15940;48.734;9.112;2023-05-01T13:18:43;96298.19;;;13.71;76.74
9525;BME280;15940;48.734;9.112;2023-05-01T13:21:12;96299.34;;;13.57;77.21
9525;BME280;15940;48.734;9.112;2023-05-01T13:23:51;96307.25;;;13.36;78.45
9525;BME280;15940;48.734;9.112;2023-05-01T13:26:25;96302.19;;;13.22;79.12
9525;BME280;15940;48.734;9.112;2023-05-01T13:28:53;96311.94;;;13.06;81.04
9525;BME280;15940;48.734;9.112;2023-05-01T13:31:21;96302.47;;;12.88;82.35